Time;durP1;ratioP1;P1;durP2;ratioP2;P2;SDS_P1;SDS_P2;PMS_P1;PMS_P2;Temp;Humidity;BMP_temperature;BMP_pressure;BME280_temperature;BME280_humidity;BME280_pressure;Samples;Min_cycle;Max_cycle;Signal;HPM_P1;HPM_P2
2021/08/31 00:04:02;;;;;;;14.97;13.43;;;16.20;99.90;;;;;;4955227;28;20503;-87
2021/08/31 00:09:24;;;;;;;15.70;14.03;;;16.30;99.90;;;;;;4958051;28;20525;-88
2021/08/31 00:11:59;;;;;;;14.50;13.00;;;16.30;99.90;;;;;;4955178;28;20553;-88
2021/08/31 00:14:33;;;;;;;13.70;12.40;;;16.30;99.90;;;;;;4954834;28;20442;-88
2021/08/31 00:19:57;;;;;;;11.23;10.23;;;16.30;99.90;;;;;;4970918;28;20512;-88
2021/08/31 00:22:53;;;;;;;14.07;12.57;;;16.30;99.90;;;;;;4969452;28;20462;-88
2021/08/31 00:25:42;;;;;;;12.57;11.30;;;16.30;99.90;;;;;;4969180;28;20464;-89
2021/08/31 00:28:20;;;;;;;13.03;11.67;;;16.30;99.90;;;;;;4967558;28;20461;-88
2021/08/31 00:31:00;;;;;;;12.13;11.03;;;16.30;99.90;;;;;;4971411;28;20452;-88
2021/08/31 00:33:36;;;;;;;14.27;12.87;;;16.20;99.90;;;;;;4975452;28;20501;-87
2021/08/31 00:36:30;;;;;;;15.57;12.97;;;16.20;99.90;;;;;;4968506;28;20436;-87
2021/08/31 00:39:08;;;;;;;13.60;12.30;;;16.20;99.90;;;;;;4966243;28;20473;-88
2021/08/31 00:41:50;;;;;;;15.10;13.63;;;16.10;99.90;;;;;;4969360;28;20461;-89
2021/08/31 00:47:26;;;;;;;14.37;12.97;;;16.10;99.90;;;;;;4964479;28;20449;-89
2021/08/31 00:50:02;;;;;;;15.30;13.47;;;16.10;99.90;;;;;;4964334;28;20488;-88
2021/08/31 00:52:46;;;;;;;15.50;14.00;;;16.10;99.90;;;;;;4963514;28;20456;-89
2021/08/31 00:55:21;;;;;;;14.33;13.00;;;16.10;99.90;;;;;;4964156;28;20447;-90
2021/08/31 00:58:10;;;;;;;15.43;14.03;;;16.10;99.90;;;;;;4962055;28;20452;-88
2021/08/31 01:00:47;;;;;;;15.80;14.30;;;16.10;99.90;;;;;;4963988;28;20455;-89
2021/08/31 01:03:22;;;;;;;16.70;13.70;;;16.10;99.90;;;;;;4966100;28;20485;-89
2021/08/31 01:06:02;;;;;;;16.73;15.07;;;16.00;99.90;;;;;;4967770;28;20478;-89
2021/08/31 01:09:00;;;;;;;15.70;14.20;;;16.10;99.90;;;;;;4967759;28;20496;-88
2021/08/31 01:14:23;;;;;;;16.60;14.87;;;16.10;99.90;;;;;;4961585;28;20432;-89
2021/08/31 01:16:58;;;;;;;17.43;15.73;;;16.20;99.90;;;;;;4964069;28;20424;-89
2021/08/31 01:19:39;;;;;;;17.23;15.50;;;16.20;99.90;;;;;;4958632;28;20468;-88
2021/08/31 01:25:25;;;;;;;19.10;17.27;;;16.20;99.90;;;;;;4963892;28;20509;-88
2021/08/31 01:30:52;;;;;;;17.77;16.00;;;16.20;99.90;;;;;;4976686;28;20488;-88
2021/08/31 01:33:36;;;;;;;18.87;17.07;;;16.20;99.90;;;;;;4967212;28;20433;-88
2021/08/31 01:36:20;;;;;;;18.33;16.43;;;16.20;99.90;;;;;;4961013;28;20461;-88
2021/08/31 01:39:03;;;;;;;19.70;17.70;;;16.30;99.90;;;;;;4958195;28;20491;-88
2021/08/31 01:41:49;;;;;;;19.00;17.10;;;16.30;99.90;;;;;;4958350;28;20457;-89
2021/08/31 01:44:22;;;;;;;17.97;16.10;;;16.30;99.90;;;;;;4958270;28;20854;-88
2021/08/31 01:47:11;;;;;;;18.00;16.23;;;16.30;99.90;;;;;;4958369;28;20439;-88
2021/08/31 01:49:43;;;;;;;18.23;16.17;;;16.40;99.90;;;;;;4957563;28;20487;-88
2021/08/31 01:52:29;;;;;;;24.93;16.50;;;16.30;99.90;;;;;;4957909;28;20498;-88
2021/08/31 01:55:02;;;;;;;19.63;17.60;;;16.30;99.90;;;;;;4958466;28;21021;-88
2021/08/31 02:00:46;;;;;;;20.20;18.17;;;16.30;99.90;;;;;;4957995;28;20935;-88
2021/08/31 02:06:16;;;;;;;20.03;17.93;;;16.20;99.90;;;;;;4959759;28;20441;-88
2021/08/31 02:09:02;;;;;;;20.90;18.80;;;16.10;99.90;;;;;;4960153;28;20535;-87
2021/08/31 02:11:41;;;;;;;20.13;17.70;;;16.20;99.90;;;;;;4961025;28;20456;-88
2021/08/31 02:14:22;;;;;;;20.90;18.90;;;16.20;99.90;;;;;;4960344;28;20445;-88
2021/08/31 02:16:54;;;;;;;22.57;18.43;;;16.20;99.90;;;;;;4958180;28;20534;-87
2021/08/31 02:19:29;;;;;;;21.77;19.60;;;16.10;99.90;;;;;;4959099;28;20454;-88
2021/08/31 02:24:58;;;;;;;25.43;19.03;;;16.10;99.90;;;;;;4961410;28;20519;-88
2021/08/31 02:27:52;;;;;;;;;;;;;;;;;;;;;
2021/08/31 02:30:44;;;;;;;24.60;19.03;;;16.00;99.90;;;;;;4960585;29;20449;-88
2021/08/31 02:33:25;;;;;;;22.73;19.57;;;16.00;99.90;;;;;;4970942;28;20473;-88
2021/08/31 02:36:03;;;;;;;21.27;19.17;;;15.90;99.90;;;;;;4962428;28;20809;-87
2021/08/31 02:41:36;;;;;;;;;;;;;;;;;;;;;
2021/08/31 02:44:10;;;;;;;19.03;17.13;;;16.00;99.90;;;;;;4968095;29;20509;-87
2021/08/31 02:46:47;;;;;;;19.30;17.20;;;16.00;99.90;;;;;;4968136;29;20472;-88
2021/08/31 02:49:19;;;;;;;21.80;19.47;;;15.90;99.90;;;;;;4964611;28;20474;-87
2021/08/31 02:51:59;;;;;;;21.20;19.00;;;15.90;99.90;;;;;;4958537;28;20456;-87
2021/08/31 02:54:35;;;;;;;19.73;17.80;;;15.80;99.90;;;;;;4967314;28;20452;-87
2021/08/31 02:57:24;;;;;;;21.23;18.83;;;15.70;99.90;;;;;;4966756;28;20453;-87
2021/08/31 03:03:03;;;;;;;21.67;19.40;;;15.60;99.90;;;;;;4963848;28;20505;-88
2021/08/31 03:05:32;;;;;;;23.40;20.90;;;15.50;99.90;;;;;;4957795;28;20547;-88
2021/08/31 03:08:31;;;;;;;23.90;21.50;;;15.50;99.90;;;;;;4959657;28;20454;-88
2021/08/31 03:11:10;;;;;;;21.73;19.43;;;15.50;99.90;;;;;;4958099;28;20457;-88
2021/08/31 03:13:40;;;;;;;22.57;20.13;;;15.60;99.90;;;;;;4967622;28;20443;-88
2021/08/31 03:19:23;;;;;;;22.87;18.97;;;15.70;99.90;;;;;;4961869;28;20610;-88
2021/08/31 03:22:12;;;;;;;;;;;;;;;;;;;;;
2021/08/31 03:24:59;;;;;;;20.30;18.10;;;15.80;99.90;;;;;;4955579;28;20480;-88
2021/08/31 03:27:50;;;;;;;22.00;19.70;;;15.90;99.90;;;;;;4955004;28;20456;-88
2021/08/31 03:30:26;;;;;;;23.80;21.30;;;15.90;99.90;;;;;;4959281;28;20481;-88
2021/08/31 03:33:16;;;;;;;23.10;20.70;;;15.90;99.90;;;;;;4967263;28;20504;-88
2021/08/31 03:36:00;;;;;;;22.20;19.40;;;15.90;99.90;;;;;;4978934;28;20446;-88
2021/08/31 03:38:34;;;;;;;20.50;18.40;;;16.00;99.90;;;;;;4962711;28;20484;-88
2021/08/31 03:41:22;;;;;;;20.73;17.60;;;16.00;99.90;;;;;;4973922;28;20480;-88
2021/08/31 03:43:57;;;;;;;21.63;19.53;;;16.00;99.90;;;;;;4970516;28;20524;-88
2021/08/31 03:46:48;;;;;;;21.57;19.37;;;15.90;99.90;;;;;;4977368;28;20433;-87
2021/08/31 03:49:15;;;;;;;22.70;20.40;;;15.90;99.90;;;;;;4988899;23;20528;-86
2021/08/31 03:51:43;;;;;;;23.80;19.07;;;15.90;99.90;;;;;;4975415;28;20455;-84
2021/08/31 03:54:10;;;;;;;22.47;19.90;;;15.80;99.90;;;;;;4974892;28;20445;-86
2021/08/31 03:56:36;;;;;;;22.93;20.67;;;15.80;99.90;;;;;;4974825;28;20450;-86
2021/08/31 03:59:03;;;;;;;23.47;20.07;;;15.80;99.90;;;;;;4985886;28;20458;-86
2021/08/31 04:01:30;;;;;;;27.03;20.67;;;15.80;99.90;;;;;;4976779;28;20845;-83
2021/08/31 04:03:57;;;;;;;26.40;21.23;;;15.80;99.90;;;;;;4974419;28;20432;-84
2021/08/31 04:06:23;;;;;;;23.80;21.50;;;15.80;99.90;;;;;;4975344;28;20483;-83
2021/08/31 04:08:52;;;;;;;23.83;21.20;;;15.80;99.90;;;;;;4974694;28;20466;-84
2021/08/31 04:11:18;;;;;;;22.50;20.07;;;15.80;99.90;;;;;;4975508;28;20459;-83
2021/08/31 04:13:45;;;;;;;23.77;20.23;;;15.80;99.90;;;;;;4976771;28;20447;-83
2021/08/31 04:16:12;;;;;;;22.93;20.43;;;15.80;99.90;;;;;;4978942;28;20445;-83
2021/08/31 04:18:38;;;;;;;22.17;19.77;;;15.80;99.90;;;;;;4974212;28;20474;-83
2021/08/31 04:21:05;;;;;;;23.33;20.87;;;15.60;99.90;;;;;;4974392;28;20914;-86
2021/08/31 04:23:32;;;;;;;26.70;21.93;;;15.60;99.90;;;;;;4975972;28;20444;-86
2021/08/31 04:26:00;;;;;;;24.63;21.53;;;15.70;99.90;;;;;;4990627;28;20583;-86
2021/08/31 04:28:26;;;;;;;24.67;20.43;;;15.70;99.90;;;;;;4993347;28;20455;-86
2021/08/31 04:30:53;;;;;;;23.03;20.63;;;15.70;99.90;;;;;;4986879;28;20443;-86
2021/08/31 04:33:20;;;;;;;24.77;22.33;;;15.70;99.90;;;;;;4992682;28;20448;-86
2021/08/31 04:35:46;;;;;;;23.73;20.33;;;15.70;99.90;;;;;;4975053;28;20443;-86
2021/08/31 04:38:14;;;;;;;22.13;19.83;;;15.80;99.90;;;;;;4996406;28;20428;-85
2021/08/31 04:40:41;;;;;;;22.97;20.40;;;15.80;99.90;;;;;;4997042;28;20462;-85
2021/08/31 04:43:09;;;;;;;23.43;20.97;;;15.90;99.90;;;;;;4985755;28;20479;-86
2021/08/31 04:45:35;;;;;;;21.53;19.30;;;15.90;99.90;;;;;;5001404;28;20469;-86
2021/08/31 04:48:02;;;;;;;24.67;22.07;;;15.90;99.90;;;;;;5000926;28;20443;-87
2021/08/31 04:50:29;;;;;;;23.97;20.70;;;15.90;99.90;;;;;;5000612;28;20511;-84
2021/08/31 04:52:55;;;;;;;21.60;18.90;;;16.00;99.90;;;;;;5000787;28;20451;-85
2021/08/31 04:55:22;;;;;;;25.20;20.83;;;16.00;99.90;;;;;;4990773;28;20455;-86
2021/08/31 04:57:49;;;;;;;23.13;20.63;;;16.00;99.90;;;;;;4994355;28;20480;-85
2021/08/31 05:00:17;;;;;;;20.60;18.60;;;16.00;99.90;;;;;;4998357;28;20463;-85
2021/08/31 05:02:44;;;;;;;23.07;20.70;;;16.00;99.90;;;;;;5000063;28;20461;-85
2021/08/31 05:05:11;;;;;;;23.10;20.03;;;16.00;99.90;;;;;;4990142;28;20490;-86
2021/08/31 05:07:38;;;;;;;21.83;19.73;;;16.00;99.90;;;;;;4983078;28;20452;-85
2021/08/31 05:10:07;;;;;;;25.90;22.53;;;16.10;99.90;;;;;;4992946;28;20479;-85
2021/08/31 05:12:33;;;;;;;26.33;22.83;;;16.10;99.90;;;;;;4996110;28;20428;-84
2021/08/31 05:15:00;;;;;;;23.77;20.53;;;16.10;99.90;;;;;;4987512;28;20455;-84
2021/08/31 05:17:28;;;;;;;26.83;20.70;;;16.10;99.90;;;;;;4979809;28;20467;-85
2021/08/31 05:19:57;;;;;;;21.47;19.23;;;16.10;99.90;;;;;;4978791;28;20477;-85
2021/08/31 05:22:23;;;;;;;30.33;21.20;;;16.10;99.90;;;;;;4978257;28;20453;-85
2021/08/31 05:24:50;;;;;;;21.67;19.10;;;16.20;99.90;;;;;;4977917;28;20479;-85
2021/08/31 05:27:17;;;;;;;23.00;20.70;;;16.20;99.90;;;;;;4981901;28;20451;-86
2021/08/31 05:29:43;;;;;;;23.33;18.93;;;16.20;99.90;;;;;;4979995;28;20469;-86
2021/08/31 05:32:10;;;;;;;20.30;18.07;;;16.20;99.90;;;;;;4982398;28;20448;-85
2021/08/31 05:34:38;;;;;;;20.43;18.23;;;16.20;99.90;;;;;;4984292;28;20451;-86
2021/08/31 05:37:06;;;;;;;20.73;18.73;;;16.20;99.90;;;;;;4990413;28;20537;-86
2021/08/31 05:39:35;;;;;;;20.17;18.07;;;16.20;99.90;;;;;;4991757;28;20454;-86
2021/08/31 05:42:02;;;;;;;19.60;17.60;;;16.30;99.90;;;;;;4999395;28;20446;-87
2021/08/31 05:44:29;;;;;;;20.33;17.80;;;16.30;99.90;;;;;;4986048;28;20572;-87
2021/08/31 05:46:56;;;;;;;23.07;20.93;;;16.30;99.90;;;;;;4980971;28;20534;-86
2021/08/31 05:49:25;;;;;;;18.40;16.50;;;16.40;99.90;;;;;;4980684;28;20852;-86
2021/08/31 05:51:54;;;;;;;20.70;18.70;;;16.40;99.90;;;;;;4980328;28;20458;-88
2021/08/31 05:54:21;;;;;;;20.27;17.97;;;16.40;99.90;;;;;;4980499;28;20453;-86
2021/08/31 05:56:48;;;;;;;20.13;18.27;;;16.50;99.90;;;;;;4979755;28;20448;-86
2021/08/31 05:59:15;;;;;;;20.43;18.33;;;16.50;99.90;;;;;;4979438;28;20498;-86
2021/08/31 06:01:43;;;;;;;20.13;18.07;;;16.60;99.90;;;;;;4980053;28;20448;-86
2021/08/31 06:04:10;;;;;;;19.70;17.60;;;16.60;99.90;;;;;;4977962;28;20459;-86
2021/08/31 06:06:37;;;;;;;20.40;18.30;;;16.60;99.90;;;;;;4982859;28;20487;-86
2021/08/31 06:09:06;;;;;;;21.13;18.97;;;16.70;99.90;;;;;;4985945;28;20494;-87
2021/08/31 06:11:37;;;;;;;17.43;15.73;;;16.70;99.90;;;;;;4999819;28;20430;-85
2021/08/31 06:14:04;;;;;;;19.93;17.87;;;16.70;99.90;;;;;;4992078;28;20441;-84
2021/08/31 06:16:31;;;;;;;17.93;16.27;;;16.80;99.90;;;;;;4987335;28;20535;-85
2021/08/31 06:18:57;;;;;;;18.37;16.47;;;16.80;99.90;;;;;;4978173;28;20464;-86
2021/08/31 06:21:24;;;;;;;20.30;18.30;;;16.80;99.90;;;;;;4979374;28;20460;-88
2021/08/31 06:26:36;;;;;;;17.27;15.50;;;17.10;99.90;;;;;;5299581;22;20504;-85
2021/08/31 06:29:03;;;;;;;17.60;15.73;;;17.10;99.90;;;;;;4979070;28;20471;-85
2021/08/31 06:31:30;;;;;;;17.10;15.40;;;17.10;99.90;;;;;;4992792;28;20983;-85
2021/08/31 06:33:56;;;;;;;18.00;14.70;;;17.20;99.90;;;;;;4981507;28;20455;-85
2021/08/31 06:36:23;;;;;;;17.73;15.50;;;17.30;99.90;;;;;;4978051;28;20436;-86
2021/08/31 06:38:50;;;;;;;15.40;13.90;;;17.40;99.90;;;;;;4981061;28;20467;-85
2021/08/31 06:41:16;;;;;;;15.50;14.10;;;17.50;99.90;;;;;;4981800;28;20801;-88
2021/08/31 06:43:46;;;;;;;14.73;12.93;;;17.60;99.90;;;;;;4980678;28;20448;-85
2021/08/31 06:46:14;;;;;;;14.40;13.10;;;17.70;99.90;;;;;;4990704;28;20502;-86
2021/08/31 06:48:42;;;;;;;14.40;12.13;;;17.80;99.90;;;;;;4992038;28;20475;-87
2021/08/31 06:51:09;;;;;;;14.43;12.97;;;17.80;99.90;;;;;;4977387;28;20511;-86
2021/08/31 06:53:35;;;;;;;13.87;12.50;;;17.90;99.90;;;;;;4980914;28;20450;-85
2021/08/31 06:56:02;;;;;;;12.57;11.50;;;18.00;99.90;;;;;;4980878;28;20540;-85
2021/08/31 06:58:29;;;;;;;13.13;11.83;;;18.00;99.90;;;;;;4981331;28;20477;-85
2021/08/31 07:00:57;;;;;;;12.40;11.33;;;18.00;99.90;;;;;;4981474;28;20451;-85
2021/08/31 07:03:25;;;;;;;12.63;11.53;;;18.00;99.90;;;;;;4981830;28;20449;-84
2021/08/31 07:05:52;;;;;;;13.43;12.13;;;18.10;99.90;;;;;;4981653;28;20489;-85
2021/08/31 07:08:18;;;;;;;13.30;11.87;;;18.20;99.90;;;;;;4980981;28;20449;-85
2021/08/31 07:10:45;;;;;;;11.67;10.67;;;18.30;99.90;;;;;;4981372;28;20454;-84
2021/08/31 07:13:14;;;;;;;10.53;9.73;;;18.40;99.90;;;;;;4981773;28;20456;-85
2021/08/31 07:15:41;;;;;;;9.53;8.73;;;18.40;99.90;;;;;;4982414;28;20455;-84
2021/08/31 07:18:09;;;;;;;10.87;9.87;;;18.50;99.90;;;;;;4980484;28;20458;-85
2021/08/31 07:20:36;;;;;;;9.53;8.67;;;18.60;99.90;;;;;;4982166;28;20453;-85
2021/08/31 07:23:03;;;;;;;11.80;10.67;;;18.70;99.90;;;;;;4980353;28;20450;-85
2021/08/31 07:25:29;;;;;;;10.27;9.20;;;18.90;99.90;;;;;;4981224;28;20994;-85
2021/08/31 07:27:56;;;;;;;10.90;9.80;;;19.10;99.90;;;;;;4981586;28;20439;-85
2021/08/31 07:30:23;;;;;;;11.60;10.60;;;19.30;99.90;;;;;;4981172;28;20478;-85
2021/08/31 07:32:49;;;;;;;10.87;9.87;;;19.50;99.90;;;;;;4985157;28;20447;-85
2021/08/31 07:35:17;;;;;;;10.50;9.70;;;19.60;99.90;;;;;;4975420;28;20471;-84
2021/08/31 07:37:44;;;;;;;10.93;9.83;;;19.70;99.90;;;;;;4994219;28;20451;-84
2021/08/31 07:40:12;;;;;;;10.23;9.43;;;19.80;99.90;;;;;;4995031;28;20742;-84
2021/08/31 07:42:39;;;;;;;11.00;10.07;;;19.80;99.90;;;;;;4987619;28;20517;-84
2021/08/31 07:45:09;;;;;;;10.83;9.80;;;19.80;99.90;;;;;;4995339;28;20522;-85
2021/08/31 07:47:36;;;;;;;11.10;10.20;;;19.70;99.90;;;;;;4982764;28;20447;-84
2021/08/31 07:50:04;;;;;;;10.03;9.13;;;19.60;99.90;;;;;;4982291;28;20482;-85
2021/08/31 07:52:34;;;;;;;10.30;9.30;;;19.60;99.90;;;;;;4989066;28;20451;-84
2021/08/31 07:55:01;;;;;;;9.77;8.97;;;19.50;99.90;;;;;;4993307;28;20451;-85
2021/08/31 07:57:28;;;;;;;11.70;10.53;;;19.40;99.90;;;;;;4988964;28;20446;-85
2021/08/31 07:59:55;;;;;;;10.67;9.57;;;19.30;99.90;;;;;;4989909;28;20478;-86
2021/08/31 08:02:21;;;;;;;11.33;10.20;;;19.20;99.90;;;;;;4983067;28;20456;-84
2021/08/31 08:04:48;;;;;;;10.30;9.30;;;19.40;99.90;;;;;;4981930;28;20466;-84
2021/08/31 08:07:15;;;;;;;10.37;9.43;;;19.40;99.90;;;;;;4981059;28;20483;-84
2021/08/31 08:09:43;;;;;;;10.50;9.53;;;19.40;99.90;;;;;;4981445;28;20526;-84
2021/08/31 08:12:11;;;;;;;10.63;9.73;;;19.60;99.90;;;;;;4983638;28;20461;-85
2021/08/31 08:14:38;;;;;;;10.77;9.70;;;19.70;99.90;;;;;;4995304;28;20515;-84
2021/08/31 08:17:05;;;;;;;10.27;9.27;;;19.70;99.90;;;;;;4985705;28;20459;-84
2021/08/31 08:19:32;;;;;;;12.10;10.50;;;19.70;99.90;;;;;;4992612;28;20477;-84
2021/08/31 08:21:59;;;;;;;11.20;10.20;;;19.50;99.90;;;;;;4980763;28;20482;-84
2021/08/31 08:24:25;;;;;;;11.10;10.10;;;19.50;99.90;;;;;;4980414;28;20932;-84
2021/08/31 08:26:57;;;;;;;11.23;10.17;;;19.60;99.90;;;;;;4980557;28;20504;-84
2021/08/31 08:29:23;;;;;;;11.40;9.80;;;19.50;99.90;;;;;;4981527;28;20557;-84
2021/08/31 08:31:50;;;;;;;9.53;8.73;;;19.50;99.90;;;;;;4981091;28;20512;-84
2021/08/31 08:34:17;;;;;;;9.20;8.40;;;19.60;99.90;;;;;;4981446;28;20456;-85
2021/08/31 08:36:44;;;;;;;10.10;9.20;;;19.70;99.90;;;;;;4980951;28;20461;-85
2021/08/31 08:39:10;;;;;;;10.20;9.20;;;20.00;99.90;;;;;;4980484;28;20482;-85
2021/08/31 08:41:37;;;;;;;9.60;8.80;;;20.20;99.90;;;;;;4980258;28;20447;-85
2021/08/31 08:44:05;;;;;;;9.57;8.67;;;20.40;99.90;;;;;;4981238;28;20640;-85
2021/08/31 08:46:32;;;;;;;9.90;9.10;;;20.90;99.90;;;;;;4980551;28;20507;-85
2021/08/31 08:48:59;;;;;;;13.70;8.73;;;21.10;99.90;;;;;;4980319;28;20472;-85
2021/08/31 08:51:26;;;;;;;8.10;7.47;;;21.20;99.90;;;;;;4979655;28;20867;-85
2021/08/31 08:53:53;;;;;;;8.93;8.17;;;21.20;99.90;;;;;;4979904;28;20448;-85
2021/08/31 08:56:21;;;;;;;8.90;8.00;;;21.20;99.90;;;;;;4979989;28;20444;-85
2021/08/31 08:58:48;;;;;;;9.50;8.70;;;21.00;99.90;;;;;;4979811;28;20527;-86
2021/08/31 09:01:16;;;;;;;10.30;9.50;;;20.90;99.90;;;;;;4980747;28;20450;-85
2021/08/31 09:03:54;;;;;;;9.47;8.57;;;20.90;99.90;;;;;;4982169;28;20447;-85
2021/08/31 09:06:22;;;;;;;11.77;8.80;;;21.00;99.90;;;;;;4979631;28;20503;-85
2021/08/31 09:08:56;;;;;;;10.10;9.20;;;20.90;99.90;;;;;;4979827;28;20475;-85
2021/08/31 09:11:26;;;;;;;9.13;8.43;;;20.90;99.90;;;;;;4979848;28;20451;-86
2021/08/31 09:14:13;;;;;;;7.90;7.30;;;21.00;99.90;;;;;;4980106;28;20484;-86
2021/08/31 09:16:42;;;;;;;9.30;8.27;;;21.30;99.90;;;;;;4980440;28;20444;-85
2021/08/31 09:19:09;;;;;;;9.43;8.13;;;21.60;99.90;;;;;;4990614;28;20520;-85
2021/08/31 09:21:36;;;;;;;8.43;7.67;;;21.70;99.90;;;;;;4994493;28;20429;-85
2021/08/31 09:24:03;;;;;;;7.93;7.33;;;22.00;99.90;;;;;;4996213;28;20445;-85
2021/08/31 09:26:36;;;;;;;8.03;7.33;;;22.20;99.90;;;;;;4985220;28;20497;-85
2021/08/31 09:29:17;;;;;;;7.60;6.60;;;22.40;99.90;;;;;;4982090;28;20474;-85
2021/08/31 09:31:51;;;;;;;7.77;7.17;;;22.80;99.90;;;;;;4982413;28;20446;-85
2021/08/31 09:34:40;;;;;;;6.97;6.40;;;22.70;99.90;;;;;;4981247;28;20451;-85
2021/08/31 09:37:27;;;;;;;7.83;6.67;;;22.70;99.90;;;;;;4990224;28;20448;-85
2021/08/31 09:40:11;;;;;;;8.50;7.57;;;22.40;99.90;;;;;;4995107;28;20466;-85
2021/08/31 09:42:53;;;;;;;7.90;7.20;;;22.30;99.90;;;;;;4992142;28;20447;-86
2021/08/31 09:45:24;;;;;;;9.30;8.40;;;22.20;99.90;;;;;;4985680;28;20454;-84
2021/08/31 09:47:52;;;;;;;7.73;6.93;;;22.30;99.90;;;;;;4980748;28;20522;-84
2021/08/31 09:50:39;;;;;;;9.43;8.63;;;22.10;99.90;;;;;;4994502;23;20503;-86
2021/08/31 09:53:12;;;;;;;8.10;7.50;;;22.00;99.90;;;;;;4975798;28;20473;-86
2021/08/31 09:55:40;;;;;;;8.87;8.00;;;22.00;99.90;;;;;;4977320;28;20442;-86
2021/08/31 09:58:12;;;;;;;7.93;7.13;;;22.30;99.90;;;;;;4978062;28;20465;-86
2021/08/31 10:00:40;;;;;;;7.90;7.20;;;22.50;99.90;;;;;;4980061;28;20471;-87
2021/08/31 10:03:08;;;;;;;8.00;7.30;;;22.60;99.90;;;;;;4976857;28;20757;-87
2021/08/31 10:05:35;;;;;;;8.20;7.40;;;22.70;99.80;;;;;;4976537;28;20439;-87
2021/08/31 10:08:03;;;;;;;7.30;6.60;;;22.70;99.60;;;;;;4976608;28;20486;-86
2021/08/31 10:10:31;;;;;;;10.23;8.20;;;22.50;99.40;;;;;;4977052;28;20470;-86
2021/08/31 10:13:01;;;;;;;7.63;7.03;;;22.30;99.60;;;;;;4978187;28;20444;-85
2021/08/31 10:15:29;;;;;;;7.60;6.97;;;22.40;99.90;;;;;;4977825;28;20461;-87
2021/08/31 10:17:55;;;;;;;7.83;7.03;;;22.50;99.90;;;;;;4976598;28;20454;-86
2021/08/31 10:20:27;;;;;;;7.40;6.63;;;22.50;99.60;;;;;;4977069;28;20470;-86
2021/08/31 10:22:55;;;;;;;6.97;6.30;;;22.70;99.40;;;;;;4976737;28;20459;-86
2021/08/31 10:25:22;;;;;;;8.23;6.93;;;22.80;98.70;;;;;;4976088;28;20449;-86
2021/08/31 10:27:50;;;;;;;6.70;6.20;;;22.70;98.60;;;;;;4976180;28;20491;-87
2021/08/31 10:30:37;;;;;;;9.60;7.13;;;22.80;98.90;;;;;;4976574;28;20474;-86
2021/08/31 10:33:20;;;;;;;7.40;6.70;;;22.80;98.40;;;;;;4976259;28;20580;-86
2021/08/31 10:35:58;;;;;;;7.30;6.60;;;22.80;98.60;;;;;;4975720;28;20967;-86
2021/08/31 10:38:53;;;;;;;7.70;7.00;;;22.70;98.20;;;;;;4994627;28;20427;-86
2021/08/31 10:41:34;;;;;;;7.70;7.00;;;22.60;98.30;;;;;;4992977;28;20446;-86
2021/08/31 10:44:01;;;;;;;6.33;5.83;;;22.60;98.50;;;;;;4976393;28;20454;-86
2021/08/31 10:47:02;;;;;;;7.07;6.47;;;22.60;98.80;;;;;;4975815;28;20486;-86
2021/08/31 10:49:28;;;;;;;6.90;6.37;;;22.50;99.00;;;;;;4978369;28;20485;-86
2021/08/31 10:52:07;;;;;;;7.67;6.03;;;22.60;98.80;;;;;;4984750;28;20447;-86
2021/08/31 10:54:44;;;;;;;8.27;7.33;;;22.70;98.30;;;;;;4995323;28;20472;-86
2021/08/31 10:57:45;;;;;;;7.57;6.87;;;23.00;97.90;;;;;;4977540;28;20443;-86
2021/08/31 11:00:45;;;;;;;7.20;6.60;;;23.10;98.00;;;;;;4979021;28;20462;-86
2021/08/31 11:03:12;;;;;;;6.87;6.27;;;23.30;97.20;;;;;;4974582;28;20447;-86
2021/08/31 11:05:38;;;;;;;8.20;7.40;;;23.40;96.70;;;;;;4975326;28;20466;-86
2021/08/31 11:08:15;;;;;;;7.30;6.13;;;23.60;96.50;;;;;;4974062;28;20495;-86
2021/08/31 11:10:44;;;;;;;7.20;6.60;;;23.70;96.10;;;;;;4975912;28;20452;-86
2021/08/31 11:13:13;;;;;;;7.10;6.60;;;23.80;95.70;;;;;;4975847;28;20458;-86
2021/08/31 11:15:40;;;;;;;7.33;6.73;;;23.80;95.90;;;;;;4976633;28;20466;-86
2021/08/31 11:18:09;;;;;;;6.83;6.10;;;23.70;95.90;;;;;;4977349;28;20445;-86
2021/08/31 11:20:36;;;;;;;9.40;6.53;;;23.40;95.00;;;;;;4977426;28;20464;-86
2021/08/31 11:23:12;;;;;;;6.67;6.13;;;23.30;95.00;;;;;;4975764;28;20452;-86
2021/08/31 11:25:42;;;;;;;6.60;6.00;;;23.40;95.30;;;;;;4976332;28;20461;-86
2021/08/31 11:28:15;;;;;;;6.10;5.60;;;24.10;94.90;;;;;;4978269;28;20491;-86
2021/08/31 11:30:48;;;;;;;7.43;6.67;;;24.70;94.30;;;;;;4976004;28;20475;-86
2021/08/31 11:33:18;;;;;;;6.63;6.03;;;25.30;92.90;;;;;;4976115;28;20524;-86
2021/08/31 11:35:45;;;;;;;7.27;6.57;;;25.80;92.00;;;;;;4975657;28;20882;-86
2021/08/31 11:38:12;;;;;;;6.57;6.07;;;26.00;91.20;;;;;;4975388;28;20921;-86
2021/08/31 11:40:42;;;;;;;7.13;6.53;;;25.60;91.40;;;;;;4975465;28;20499;-86
2021/08/31 11:43:09;;;;;;;6.43;5.83;;;26.20;91.20;;;;;;4976036;28;20455;-86
2021/08/31 11:45:38;;;;;;;6.30;5.70;;;27.40;89.40;;;;;;4976996;28;20509;-85
2021/08/31 11:48:06;;;;;;;6.93;6.23;;;28.30;84.50;;;;;;4978350;28;20662;-86
2021/08/31 11:50:33;;;;;;;8.17;6.73;;;27.90;82.20;;;;;;4975023;28;20466;-86
2021/08/31 11:53:14;;;;;;;8.53;6.37;;;27.50;83.40;;;;;;4974733;28;20468;-86
2021/08/31 11:55:43;;;;;;;6.30;5.80;;;27.30;82.20;;;;;;4975543;28;20454;-86
2021/08/31 11:58:09;;;;;;;7.13;6.53;;;27.00;83.80;;;;;;4978175;28;20441;-86
2021/08/31 12:00:43;;;;;;;6.93;6.23;;;26.40;84.50;;;;;;4979462;28;20455;-87
2021/08/31 12:03:24;;;;;;;6.23;5.83;;;26.10;86.10;;;;;;4975631;28;20463;-86
2021/08/31 12:05:55;;;;;;;5.93;5.40;;;25.80;87.20;;;;;;4979223;28;20457;-86
2021/08/31 12:08:24;;;;;;;5.87;5.47;;;25.60;87.10;;;;;;4974777;28;20489;-86
2021/08/31 12:10:54;;;;;;;6.33;5.70;;;25.70;88.00;;;;;;4975031;28;20452;-86
2021/08/31 12:13:21;;;;;;;6.03;5.43;;;25.40;87.40;;;;;;4985477;28;20787;-86
2021/08/31 12:15:50;;;;;;;6.50;5.90;;;25.20;87.50;;;;;;4975832;28;20436;-86
2021/08/31 12:18:19;;;;;;;6.33;5.83;;;25.10;88.30;;;;;;4974175;28;20443;-86
2021/08/31 12:20:46;;;;;;;6.73;6.13;;;25.10;88.40;;;;;;4980090;28;20989;-86
2021/08/31 12:23:14;;;;;;;6.40;5.90;;;24.80;88.30;;;;;;4976575;28;20448;-86
2021/08/31 12:25:42;;;;;;;6.43;5.93;;;24.80;90.10;;;;;;4974894;28;20940;-86
2021/08/31 12:28:12;;;;;;;6.67;6.17;;;25.10;88.90;;;;;;4974281;28;20488;-86
2021/08/31 12:30:40;;;;;;;7.07;6.40;;;25.50;87.70;;;;;;4975362;28;20475;-85
2021/08/31 12:33:07;;;;;;;7.20;6.67;;;25.40;87.90;;;;;;4979514;28;20451;-82
2021/08/31 12:35:37;;;;;;;7.00;6.30;;;24.50;89.20;;;;;;4984128;28;20436;-82
2021/08/31 12:38:10;;;;;;;7.27;6.57;;;24.20;90.40;;;;;;4993685;28;20506;-82
2021/08/31 12:40:39;;;;;;;9.10;6.57;;;24.00;91.00;;;;;;4993719;28;20555;-82
2021/08/31 12:43:08;;;;;;;6.70;6.00;;;24.00;91.70;;;;;;4984412;28;20479;-84
2021/08/31 12:45:36;;;;;;;6.50;6.00;;;24.00;91.40;;;;;;4977573;28;20456;-84
2021/08/31 12:48:34;;;;;;;7.57;6.77;;;23.70;91.30;;;;;;4976725;28;20479;-83
2021/08/31 12:51:04;;;;;;;6.47;5.87;;;23.40;92.30;;;;;;4972964;28;20467;-82
2021/08/31 12:53:36;;;;;;;7.00;6.30;;;23.50;92.70;;;;;;4981104;28;20524;-83
2021/08/31 12:56:05;;;;;;;5.87;5.47;;;23.80;92.40;;;;;;4982711;28;20446;-82
2021/08/31 12:58:35;;;;;;;7.60;6.33;;;24.00;91.70;;;;;;4982818;28;20447;-83
2021/08/31 13:01:17;;;;;;;10.13;6.03;;;24.30;91.20;;;;;;4988620;28;20443;-83
2021/08/31 13:03:46;;;;;;;6.10;5.50;;;24.20;91.00;;;;;;4986931;28;20428;-83
2021/08/31 13:06:32;;;;;;;6.80;6.07;;;24.10;90.30;;;;;;4987041;28;20453;-83
2021/08/31 13:09:00;;;;;;;6.90;5.77;;;24.10;90.90;;;;;;4986485;28;20541;-82
2021/08/31 13:11:27;;;;;;;7.07;6.37;;;23.80;91.10;;;;;;4987525;28;20455;-83
2021/08/31 13:13:53;;;;;;;6.63;6.10;;;24.00;90.60;;;;;;4987864;28;20439;-82
2021/08/31 13:16:21;;;;;;;6.30;5.80;;;24.40;90.20;;;;;;4988340;28;20454;-83
2021/08/31 13:18:48;;;;;;;6.33;5.73;;;25.80;87.10;;;;;;4987952;28;20463;-83
2021/08/31 13:21:15;;;;;;;7.10;6.40;;;28.10;81.40;;;;;;4985950;28;20450;-82
2021/08/31 13:23:42;;;;;;;7.73;5.63;;;29.70;74.90;;;;;;4985808;28;20535;-83
2021/08/31 13:26:09;;;;;;;7.00;6.50;;;29.20;71.70;;;;;;4987034;28;20455;-83
2021/08/31 13:28:36;;;;;;;6.50;5.50;;;30.60;68.70;;;;;;4986304;28;20479;-82
2021/08/31 13:31:08;;;;;;;5.70;5.30;;;31.60;65.40;;;;;;4987227;28;20455;-82
2021/08/31 13:33:36;;;;;;;7.50;5.80;;;32.40;62.10;;;;;;4989448;28;20459;-83
2021/08/31 13:36:03;;;;;;;5.93;5.43;;;31.00;61.60;;;;;;4986068;28;20458;-82
2021/08/31 13:38:30;;;;;;;6.57;5.97;;;29.10;63.90;;;;;;4986442;28;20467;-83
2021/08/31 13:40:57;;;;;;;6.90;6.30;;;27.50;68.40;;;;;;4987198;28;20461;-82
2021/08/31 13:43:24;;;;;;;6.10;5.63;;;26.00;74.40;;;;;;4986166;28;20442;-83